createdAt,value
2022-12-25T00:01:16.257Z,10.70
2022-12-25T00:03:43.453Z,10.80
2022-12-25T00:06:10.875Z,10.70
2022-12-25T00:08:39.532Z,10.80
2022-12-25T00:11:13.247Z,10.70
2022-12-25T00:13:40.570Z,10.80
2022-12-25T00:16:09.329Z,10.80
2022-12-25T00:18:36.381Z,10.80
2022-12-25T00:21:06.047Z,10.80
2022-12-25T00:23:34.881Z,10.80
2022-12-25T00:26:06.237Z,10.80
2022-12-25T00:28:33.173Z,10.80
2022-12-25T00:31:03.917Z,10.80
2022-12-25T00:33:30.853Z,10.80
2022-12-25T00:36:01.442Z,10.80
2022-12-25T00:38:28.745Z,10.80
2022-12-25T00:40:55.664Z,10.80
2022-12-25T00:43:23.002Z,10.80
2022-12-25T00:45:58.993Z,10.80
2022-12-25T00:48:26.814Z,10.80
2022-12-25T00:50:55.701Z,10.80
2022-12-25T00:53:23.829Z,10.80
2022-12-25T00:55:52.590Z,10.80
2022-12-25T00:58:19.898Z,10.80
2022-12-25T01:00:48.948Z,10.80
2022-12-25T01:03:17.226Z,10.80
2022-12-25T01:05:45.608Z,10.80
2022-12-25T01:08:12.527Z,10.80
2022-12-25T01:10:39.426Z,10.80
2022-12-25T01:13:06.365Z,10.70
2022-12-25T01:15:33.319Z,10.70
2022-12-25T01:18:05.654Z,10.70
2022-12-25T01:20:35.755Z,10.70
2022-12-25T01:23:02.675Z,10.70
2022-12-25T01:25:29.557Z,10.60
2022-12-25T01:27:56.983Z,10.60
2022-12-25T01:30:23.864Z,10.60
2022-12-25T01:32:50.777Z,10.60
2022-12-25T01:35:17.723Z,10.60
2022-12-25T01:37:44.591Z,10.60
2022-12-25T01:40:11.821Z,10.60
2022-12-25T01:42:38.874Z,10.50
2022-12-25T01:45:33.188Z,10.50
2022-12-25T01:48:03.567Z,10.50
2022-12-25T01:50:30.896Z,10.50
2022-12-25T01:52:58.194Z,10.50
2022-12-25T01:55:26.417Z,10.40
2022-12-25T01:57:53.490Z,10.40
2022-12-25T02:00:20.745Z,10.40
2022-12-25T02:02:49.106Z,10.40
2022-12-25T02:05:33.531Z,10.40
2022-12-25T02:08:14.261Z,10.40
2022-12-25T02:10:43.738Z,10.40
2022-12-25T02:13:15.233Z,10.40
2022-12-25T02:15:57.149Z,10.40
2022-12-25T02:18:52.112Z,10.40
2022-12-25T02:21:46.867Z,10.40
2022-12-25T02:24:40.320Z,10.40
2022-12-25T02:27:19.416Z,10.40
2022-12-25T02:30:06.080Z,10.30
2022-12-25T02:32:41.979Z,10.30
2022-12-25T02:35:26.932Z,10.30
2022-12-25T02:38:10.748Z,10.20
2022-12-25T02:40:43.875Z,10.20
2022-12-25T02:43:37.945Z,10.10
2022-12-25T02:46:27.496Z,10.10
2022-12-25T02:49:16.528Z,10.10
2022-12-25T02:52:15.887Z,10.10
2022-12-25T02:55:05.691Z,10.00
2022-12-25T02:57:57.040Z,10.00
2022-12-25T03:00:42.939Z,10.00
2022-12-25T03:03:30.822Z,10.00
2022-12-25T03:06:21.600Z,10.00
2022-12-25T03:08:53.641Z,10.00
2022-12-25T03:11:32.688Z,10.00
2022-12-25T03:14:24.660Z,10.00
2022-12-25T03:16:55.334Z,10.00
2022-12-25T03:19:44.354Z,10.00
2022-12-25T03:22:38.429Z,10.10
2022-12-25T03:25:24.187Z,10.10
2022-12-25T03:27:55.109Z,10.10
2022-12-25T03:31:00.710Z,10.10
2022-12-25T03:34:01.459Z,10.10
2022-12-25T03:36:45.042Z,10.10
2022-12-25T03:39:51.567Z,10.10
2022-12-25T03:42:40.931Z,10.10
2022-12-25T03:45:52.928Z,10.10
2022-12-25T03:48:38.783Z,10.10
2022-12-25T03:51:30.783Z,10.10
2022-12-25T03:54:23.389Z,10.10
2022-12-25T03:57:08.804Z,10.10
2022-12-25T03:59:54.086Z,10.10
2022-12-25T04:02:39.575Z,10.10
2022-12-25T04:05:25.727Z,10.10
2022-12-25T04:08:11.039Z,10.10
2022-12-25T04:10:56.320Z,10.10
2022-12-25T04:13:41.858Z,10.10
2022-12-25T04:16:27.271Z,10.20
2022-12-25T04:19:12.649Z,10.20
2022-12-25T04:21:58.098Z,10.20
2022-12-25T04:24:43.443Z,10.20
2022-12-25T04:27:29.135Z,10.20
2022-12-25T04:30:14.349Z,10.20
2022-12-25T04:32:59.695Z,10.20
2022-12-25T04:35:45.122Z,10.20
2022-12-25T04:38:12.067Z,10.20
2022-12-25T04:40:38.957Z,10.20
2022-12-25T04:43:05.845Z,10.20
2022-12-25T04:45:32.818Z,10.10
2022-12-25T04:48:00.896Z,10.20
2022-12-25T04:50:27.781Z,10.10
2022-12-25T04:52:54.686Z,10.20
2022-12-25T04:55:21.806Z,10.20
2022-12-25T04:57:48.715Z,10.20
2022-12-25T05:00:15.984Z,10.20
2022-12-25T05:02:43.133Z,10.20
2022-12-25T05:05:10.134Z,10.20
2022-12-25T05:07:37.329Z,10.20
2022-12-25T05:10:04.612Z,10.30
2022-12-25T05:12:31.518Z,10.20
2022-12-25T05:14:58.378Z,10.30
2022-12-25T05:17:25.332Z,10.30
2022-12-25T05:19:52.189Z,10.30
2022-12-25T05:22:19.146Z,10.30
2022-12-25T05:24:46.057Z,10.30
2022-12-25T05:27:12.941Z,10.30
2022-12-25T05:29:39.846Z,10.30
2022-12-25T05:32:06.994Z,10.30
2022-12-25T05:34:33.911Z,10.30
2022-12-25T05:37:01.007Z,10.30
2022-12-25T05:39:27.897Z,10.30
2022-12-25T05:41:54.793Z,10.30
2022-12-25T05:44:21.796Z,10.30
2022-12-25T05:46:48.993Z,10.20
2022-12-25T05:49:15.981Z,10.20
2022-12-25T05:51:43.892Z,10.20
2022-12-25T05:54:10.827Z,10.20
2022-12-25T05:56:38.014Z,10.20
2022-12-25T05:59:04.917Z,10.20
2022-12-25T06:01:31.910Z,10.20
2022-12-25T06:03:59.064Z,10.10
2022-12-25T06:06:26.003Z,10.10
2022-12-25T06:08:56.188Z,10.10
2022-12-25T06:11:23.138Z,10.10
2022-12-25T06:13:51.872Z,10.00
2022-12-25T06:16:19.677Z,9.90
2022-12-25T06:18:49.661Z,9.90
2022-12-25T06:21:16.904Z,9.90
2022-12-25T06:23:44.819Z,9.90
2022-12-25T06:26:17.580Z,9.90
2022-12-25T06:28:45.037Z,9.80
2022-12-25T06:31:19.252Z,9.80
2022-12-25T06:33:46.683Z,9.80
2022-12-25T06:36:19.216Z,9.80
2022-12-25T06:38:46.452Z,9.80
2022-12-25T06:41:15.810Z,9.80
2022-12-25T06:43:43.173Z,9.80
2022-12-25T06:46:12.258Z,9.70
2022-12-25T06:48:41.535Z,9.80
2022-12-25T06:51:08.507Z,9.80
2022-12-25T06:53:40.116Z,9.70
2022-12-25T06:56:10.401Z,9.70
2022-12-25T06:58:37.282Z,9.70
2022-12-25T07:01:15.579Z,9.70
2022-12-25T07:03:45.382Z,9.70
2022-12-25T07:06:12.826Z,9.70
2022-12-25T07:08:39.794Z,9.80
2022-12-25T07:11:06.949Z,9.80
2022-12-25T07:13:33.872Z,9.80
2022-12-25T07:16:03.283Z,9.70
2022-12-25T07:18:31.221Z,9.70
2022-12-25T07:20:59.816Z,9.70
2022-12-25T07:23:27.319Z,9.70
2022-12-25T07:25:59.542Z,9.70
2022-12-25T07:28:26.510Z,9.80
2022-12-25T07:30:53.708Z,9.70
2022-12-25T07:33:20.935Z,9.70
2022-12-25T07:35:47.972Z,9.80
2022-12-25T07:38:14.877Z,9.80
2022-12-25T07:40:46.415Z,9.80
2022-12-25T07:43:14.352Z,9.70
2022-12-25T07:45:41.320Z,9.80
2022-12-25T07:48:13.420Z,9.80
2022-12-25T07:50:43.442Z,9.80
2022-12-25T07:53:11.306Z,9.80
2022-12-25T07:55:38.255Z,9.70
2022-12-25T07:58:07.214Z,9.70
2022-12-25T08:00:34.370Z,9.70
2022-12-25T08:03:01.477Z,9.70
2022-12-25T08:05:28.867Z,9.80
2022-12-25T08:07:58.006Z,9.80
2022-12-25T08:10:25.673Z,9.80
2022-12-25T08:12:56.339Z,9.80
2022-12-25T08:15:23.298Z,9.80
2022-12-25T08:17:50.262Z,9.80
2022-12-25T08:20:17.241Z,9.80
2022-12-25T08:22:44.089Z,9.80
2022-12-25T08:25:10.964Z,9.80
2022-12-25T08:27:38.076Z,9.80
2022-12-25T08:30:05.373Z,9.80
2022-12-25T08:32:33.788Z,9.80
2022-12-25T08:35:00.848Z,9.90
2022-12-25T08:37:30.009Z,9.90
2022-12-25T08:39:56.937Z,9.90
2022-12-25T08:42:23.989Z,9.90
2022-12-25T08:44:50.891Z,9.90
2022-12-25T08:47:18.008Z,9.90
2022-12-25T08:49:44.891Z,9.90
2022-12-25T08:52:11.888Z,9.90
2022-12-25T08:54:38.814Z,9.90
2022-12-25T08:57:05.763Z,9.90
2022-12-25T08:59:32.782Z,10.00
2022-12-25T09:01:59.893Z,10.00
2022-12-25T09:04:27.019Z,10.00
2022-12-25T09:06:53.975Z,10.00
2022-12-25T09:09:20.916Z,10.00
2022-12-25T09:11:49.357Z,10.00
2022-12-25T09:14:16.309Z,10.00
2022-12-25T09:16:43.352Z,10.00
2022-12-25T09:19:10.225Z,10.00
2022-12-25T09:21:37.178Z,10.00
2022-12-25T09:24:04.885Z,10.00
2022-12-25T09:26:31.797Z,10.00
2022-12-25T09:28:58.763Z,10.00
2022-12-25T09:31:25.788Z,10.00
2022-12-25T09:33:58.071Z,10.00
2022-12-25T09:36:25.785Z,10.00
2022-12-25T09:38:53.034Z,10.00
2022-12-25T09:41:28.925Z,10.00
2022-12-25T09:44:10.496Z,10.00
2022-12-25T09:47:01.795Z,10.00
2022-12-25T09:49:42.068Z,10.00
2022-12-25T09:52:22.144Z,10.00
2022-12-25T09:54:59.332Z,10.00
2022-12-25T09:57:26.844Z,10.10
2022-12-25T09:59:57.164Z,10.10
2022-12-25T10:02:45.986Z,10.10
2022-12-25T10:05:41.017Z,10.10
2022-12-25T10:08:31.957Z,10.10
2022-12-25T10:11:20.657Z,10.10
2022-12-25T10:13:47.525Z,10.10
2022-12-25T10:16:26.510Z,10.10
2022-12-25T10:19:04.149Z,10.10
2022-12-25T10:21:31.828Z,10.10
2022-12-25T10:24:05.652Z,10.10
2022-12-25T10:26:35.123Z,10.00
2022-12-25T10:29:09.596Z,10.00
2022-12-25T10:31:37.596Z,10.00
2022-12-25T10:34:06.039Z,10.00
2022-12-25T10:36:33.601Z,10.00
2022-12-25T10:39:00.497Z,10.00
2022-12-25T10:41:36.470Z,10.00
2022-12-25T10:44:24.627Z,10.00
2022-12-25T10:46:57.437Z,10.00
2022-12-25T10:49:34.291Z,10.00
2022-12-25T10:52:02.727Z,10.00
2022-12-25T10:54:36.773Z,10.00
2022-12-25T10:57:04.841Z,10.00
2022-12-25T10:59:41.702Z,10.00
2022-12-25T11:02:40.151Z,10.00
2022-12-25T11:05:21.543Z,10.10
2022-12-25T11:07:54.327Z,10.10
2022-12-25T11:10:30.152Z,10.20
2022-12-25T11:12:58.638Z,10.20
2022-12-25T11:15:39.038Z,10.20
2022-12-25T11:18:19.495Z,10.20
2022-12-25T11:20:55.541Z,10.20
2022-12-25T11:23:24.679Z,10.20
2022-12-25T11:26:11.977Z,10.20
2022-12-25T11:28:41.675Z,10.20
2022-12-25T11:31:19.829Z,10.20
2022-12-25T11:33:55.320Z,10.30
2022-12-25T11:36:24.994Z,10.30
2022-12-25T11:38:52.494Z,10.30
2022-12-25T11:41:31.061Z,10.30
2022-12-25T11:44:01.728Z,10.40
2022-12-25T11:46:43.120Z,10.40
2022-12-25T11:49:16.534Z,10.40
2022-12-25T11:51:46.497Z,10.50
2022-12-25T11:54:31.734Z,10.50
2022-12-25T11:57:03.900Z,10.60
2022-12-25T11:59:40.113Z,10.60
2022-12-25T12:02:22.370Z,10.60
2022-12-25T12:04:56.087Z,10.60
2022-12-25T12:07:30.022Z,10.70
2022-12-25T12:10:17.970Z,10.70
2022-12-25T12:13:00.449Z,10.70
2022-12-25T12:15:31.296Z,10.70
2022-12-25T12:18:23.149Z,10.70
2022-12-25T12:21:16.429Z,10.70
2022-12-25T12:24:17.653Z,10.60
2022-12-25T12:26:46.392Z,10.60
2022-12-25T12:29:27.950Z,10.60
2022-12-25T12:31:59.799Z,10.60
2022-12-25T12:34:32.417Z,10.50
2022-12-25T12:37:07.381Z,10.60
2022-12-25T12:39:40.536Z,10.50
2022-12-25T12:42:22.591Z,10.50
2022-12-25T12:44:50.469Z,10.50
2022-12-25T12:47:36.894Z,10.50
2022-12-25T12:50:05.850Z,10.50
2022-12-25T12:52:38.037Z,10.50
2022-12-25T12:55:14.260Z,10.50
2022-12-25T12:57:41.792Z,10.50
2022-12-25T13:00:17.648Z,10.50
2022-12-25T13:03:17.864Z,10.60
2022-12-25T13:05:54.656Z,10.60
2022-12-25T13:08:42.954Z,10.60
2022-12-25T13:11:21.419Z,10.60
2022-12-25T13:13:51.315Z,10.70
2022-12-25T13:16:33.569Z,10.70
2022-12-25T13:19:06.209Z,10.70
2022-12-25T13:21:33.987Z,10.70
2022-12-25T13:24:04.132Z,10.70
2022-12-25T13:26:31.282Z,10.70
2022-12-25T13:28:59.276Z,10.70
2022-12-25T13:31:31.034Z,10.80
2022-12-25T13:34:02.621Z,10.80
2022-12-25T13:36:35.851Z,10.80
2022-12-25T13:39:07.216Z,10.80
2022-12-25T13:42:06.818Z,10.80
2022-12-25T13:44:36.709Z,10.80
2022-12-25T13:47:30.897Z,10.80
2022-12-25T13:50:01.464Z,10.80
2022-12-25T13:52:35.995Z,10.80
2022-12-25T13:55:11.512Z,10.90
2022-12-25T13:57:41.639Z,10.90
2022-12-25T14:00:18.895Z,10.90
2022-12-25T14:02:46.460Z,10.90
2022-12-25T14:05:42.097Z,11.00
2022-12-25T14:08:20.842Z,11.00
2022-12-25T14:10:50.761Z,11.00
2022-12-25T14:13:20.636Z,11.00
2022-12-25T14:15:48.994Z,11.00
2022-12-25T14:18:18.223Z,11.00
2022-12-25T14:21:10.834Z,11.00
2022-12-25T14:23:48.549Z,11.00
2022-12-25T14:26:27.830Z,11.00
2022-12-25T14:29:15.683Z,11.00
2022-12-25T14:31:44.079Z,11.00
2022-12-25T14:34:24.557Z,11.00
2022-12-25T14:36:53.043Z,11.00
2022-12-25T14:39:26.860Z,11.00
2022-12-25T14:41:54.579Z,10.90
2022-12-25T14:44:40.992Z,10.90
2022-12-25T14:47:10.890Z,10.90
2022-12-25T14:49:38.582Z,10.90
2022-12-25T14:52:29.871Z,10.90
2022-12-25T14:55:08.562Z,10.90
2022-12-25T14:57:40.523Z,10.90
2022-12-25T15:00:27.476Z,10.80
2022-12-25T15:02:57.719Z,10.80
2022-12-25T15:05:38.393Z,10.80
2022-12-25T15:08:21.278Z,10.70
2022-12-25T15:11:04.880Z,10.70
2022-12-25T15:13:32.356Z,10.70
2022-12-25T15:16:19.604Z,10.70
2022-12-25T15:18:48.291Z,10.70
2022-12-25T15:21:26.445Z,10.70
2022-12-25T15:23:58.797Z,10.70
2022-12-25T15:26:27.330Z,10.80
2022-12-25T15:28:54.392Z,10.80
2022-12-25T15:31:22.963Z,10.80
2022-12-25T15:33:50.573Z,10.80
2022-12-25T15:36:17.717Z,10.80
2022-12-25T15:38:44.842Z,10.80
2022-12-25T15:41:47.451Z,10.70
2022-12-25T15:44:15.473Z,10.70
2022-12-25T15:46:42.934Z,10.70
2022-12-25T15:49:11.727Z,10.70
2022-12-25T15:51:40.821Z,10.70
2022-12-25T15:54:11.611Z,10.60
2022-12-25T15:56:50.952Z,10.60
2022-12-25T15:59:20.615Z,10.60
2022-12-25T16:01:59.022Z,10.60
2022-12-25T16:04:28.045Z,10.60
2022-12-25T16:06:56.329Z,10.60
2022-12-25T16:09:23.273Z,10.60
2022-12-25T16:11:50.684Z,10.60
2022-12-25T16:14:19.613Z,10.60
2022-12-25T16:16:46.576Z,10.60
2022-12-25T16:19:13.600Z,10.60
2022-12-25T16:21:44.355Z,10.60
2022-12-25T16:24:11.832Z,10.60
2022-12-25T16:26:38.944Z,10.50
2022-12-25T16:29:07.440Z,10.50
2022-12-25T16:31:35.801Z,10.50
2022-12-25T16:34:03.488Z,10.50
2022-12-25T16:36:30.752Z,10.50
2022-12-25T16:38:57.749Z,10.50
2022-12-25T16:41:25.164Z,10.40
2022-12-25T16:43:52.098Z,10.50
2022-12-25T16:46:22.753Z,10.40
2022-12-25T16:48:52.840Z,10.40
2022-12-25T16:51:21.183Z,10.40
2022-12-25T16:53:48.141Z,10.40
2022-12-25T16:56:18.457Z,10.40
2022-12-25T16:58:46.836Z,10.40
2022-12-25T17:01:17.437Z,10.30
2022-12-25T17:03:44.738Z,10.30
2022-12-25T17:06:15.768Z,10.30
2022-12-25T17:08:43.535Z,10.30
2022-12-25T17:11:10.482Z,10.30
2022-12-25T17:13:37.550Z,10.30
2022-12-25T17:16:19.600Z,10.30
2022-12-25T17:18:46.640Z,10.30
2022-12-25T17:21:14.850Z,10.30
2022-12-25T17:23:41.958Z,10.30
2022-12-25T17:26:08.945Z,10.20
2022-12-25T17:28:35.979Z,10.20
2022-12-25T17:31:05.948Z,10.30
2022-12-25T17:33:36.268Z,10.20
2022-12-25T17:36:19.414Z,10.20
2022-12-25T17:38:48.014Z,10.20
2022-12-25T17:41:20.051Z,10.20
2022-12-25T17:43:49.147Z,10.20
2022-12-25T17:46:23.636Z,10.20
2022-12-25T17:48:52.857Z,10.20
2022-12-25T17:51:22.318Z,10.20
2022-12-25T17:53:53.766Z,10.20
2022-12-25T17:56:24.152Z,10.20
2022-12-25T17:58:54.871Z,10.20
2022-12-25T18:01:23.627Z,10.20
2022-12-25T18:03:54.205Z,10.20
2022-12-25T18:06:24.714Z,10.20
2022-12-25T18:08:56.402Z,10.20
2022-12-25T18:11:29.244Z,10.20
2022-12-25T18:13:58.335Z,10.20
2022-12-25T18:16:26.843Z,10.20
2022-12-25T18:18:55.011Z,10.20
2022-12-25T18:21:23.640Z,10.20
2022-12-25T18:23:52.049Z,10.20
2022-12-25T18:26:22.226Z,10.20
2022-12-25T18:28:51.320Z,10.20
2022-12-25T18:31:23.098Z,10.20
2022-12-25T18:33:52.076Z,10.20
2022-12-25T18:36:22.711Z,10.20
2022-12-25T18:38:53.773Z,10.20
2022-12-25T18:41:23.276Z,10.20
2022-12-25T18:43:55.531Z,10.10
2022-12-25T18:46:25.456Z,10.10
2022-12-25T18:48:56.991Z,10.10
2022-12-25T18:51:36.603Z,10.10
2022-12-25T18:54:06.088Z,10.10
2022-12-25T18:56:36.194Z,10.20
2022-12-25T18:59:05.157Z,10.20
2022-12-25T19:01:35.235Z,10.20
2022-12-25T19:04:05.403Z,10.20
2022-12-25T19:06:33.981Z,10.20
2022-12-25T19:09:05.679Z,10.20
2022-12-25T19:11:32.551Z,10.10
2022-12-25T19:13:59.511Z,10.10
2022-12-25T19:16:30.926Z,10.20
2022-12-25T19:18:59.132Z,10.10
2022-12-25T19:21:27.109Z,10.10
2022-12-25T19:23:56.489Z,10.10
2022-12-25T19:26:26.472Z,10.10
2022-12-25T19:28:56.689Z,10.10
2022-12-25T19:31:29.656Z,10.10
2022-12-25T19:33:59.742Z,10.10
2022-12-25T19:36:32.863Z,10.10
2022-12-25T19:39:01.045Z,10.00
2022-12-25T19:41:28.945Z,10.10
2022-12-25T19:43:56.936Z,10.10
2022-12-25T19:46:33.134Z,10.10
2022-12-25T19:49:04.815Z,10.10
2022-12-25T19:51:36.358Z,10.00
2022-12-25T19:54:06.837Z,10.00
2022-12-25T19:56:36.978Z,10.00
2022-12-25T19:59:04.908Z,10.00
2022-12-25T20:01:33.597Z,10.00
2022-12-25T20:04:01.786Z,10.00
2022-12-25T20:06:33.091Z,10.00
2022-12-25T20:09:05.824Z,10.00
2022-12-25T20:11:34.247Z,10.00
2022-12-25T20:14:04.617Z,10.00
2022-12-25T20:16:39.129Z,10.00
2022-12-25T20:19:11.038Z,10.10
2022-12-25T20:21:38.150Z,10.00
2022-12-25T20:24:06.317Z,10.10
2022-12-25T20:26:36.959Z,10.10
2022-12-25T20:29:04.865Z,10.10
2022-12-25T20:31:34.072Z,10.10
2022-12-25T20:34:06.919Z,10.10
2022-12-25T20:36:37.170Z,10.10
2022-12-25T20:39:10.768Z,10.10
2022-12-25T20:41:39.693Z,10.10
2022-12-25T20:44:10.237Z,10.10
2022-12-25T20:46:38.029Z,10.10
2022-12-25T20:49:05.724Z,10.10
2022-12-25T20:51:32.732Z,10.10
2022-12-25T20:53:59.686Z,10.10
2022-12-25T20:56:27.288Z,10.10
2022-12-25T20:58:59.290Z,10.10
2022-12-25T21:01:27.853Z,10.00
2022-12-25T21:03:55.696Z,10.00
2022-12-25T21:06:23.152Z,10.00
2022-12-25T21:08:50.140Z,10.00
2022-12-25T21:11:18.351Z,10.00
2022-12-25T21:13:46.323Z,10.00
2022-12-25T21:16:15.937Z,10.00
2022-12-25T21:18:43.907Z,10.00
2022-12-25T21:21:11.702Z,10.00
2022-12-25T21:23:40.466Z,10.00
2022-12-25T21:26:19.220Z,10.00
2022-12-25T21:28:50.765Z,10.00
2022-12-25T21:31:18.949Z,10.00
2022-12-25T21:33:52.512Z,9.90
2022-12-25T21:36:26.820Z,10.00
2022-12-25T21:38:59.193Z,10.00
2022-12-25T21:41:27.845Z,10.00
2022-12-25T21:43:55.443Z,10.00
2022-12-25T21:46:22.941Z,10.00
2022-12-25T21:48:50.133Z,10.00
2022-12-25T21:51:44.696Z,10.00
2022-12-25T21:54:13.256Z,10.00
2022-12-25T21:56:44.780Z,9.90
2022-12-25T21:59:15.633Z,9.90
2022-12-25T22:01:43.284Z,9.90
2022-12-25T22:04:10.768Z,9.90
2022-12-25T22:06:56.078Z,9.90
2022-12-25T22:09:23.713Z,9.90
2022-12-25T22:12:09.122Z,9.90
2022-12-25T22:14:54.723Z,9.90
2022-12-25T22:17:44.187Z,9.90
2022-12-25T22:20:18.042Z,9.90
2022-12-25T22:22:45.059Z,9.90
2022-12-25T22:25:13.053Z,9.90
2022-12-25T22:27:41.212Z,9.90
2022-12-25T22:30:17.343Z,9.90
2022-12-25T22:32:44.978Z,9.90
2022-12-25T22:35:12.828Z,9.90
2022-12-25T22:37:41.088Z,9.90
2022-12-25T22:40:09.354Z,9.90
2022-12-25T22:42:36.287Z,9.90
2022-12-25T22:45:04.129Z,9.90
2022-12-25T22:47:31.395Z,10.00
2022-12-25T22:49:58.283Z,10.00
2022-12-25T22:52:25.382Z,10.00
2022-12-25T22:54:53.347Z,10.00
2022-12-25T22:57:20.381Z,10.00
2022-12-25T22:59:47.242Z,10.00
2022-12-25T23:02:14.280Z,10.00
2022-12-25T23:04:41.325Z,9.90
2022-12-25T23:07:08.881Z,9.90
2022-12-25T23:09:35.818Z,9.90
2022-12-25T23:12:02.756Z,10.00
2022-12-25T23:14:38.790Z,9.90
2022-12-25T23:17:31.051Z,10.00
2022-12-25T23:20:18.386Z,9.90
2022-12-25T23:23:04.807Z,9.90
2022-12-25T23:25:50.586Z,9.90
2022-12-25T23:28:38.403Z,9.90
2022-12-25T23:31:05.559Z,9.90
2022-12-25T23:33:33.036Z,9.90
2022-12-25T23:35:59.911Z,10.00
2022-12-25T23:38:26.899Z,10.00
2022-12-25T23:40:53.831Z,9.90
2022-12-25T23:43:20.834Z,9.90
2022-12-25T23:45:47.745Z,10.00
2022-12-25T23:48:14.638Z,10.00
2022-12-25T23:50:41.558Z,10.00
2022-12-25T23:53:09.419Z,10.00
2022-12-25T23:55:36.552Z,10.00
2022-12-25T23:58:04.826Z,10.00
